createdAt,value
2023-04-22T00:00:15.414Z,23.25
2023-04-22T00:02:42.460Z,20.75
2023-04-22T00:05:28.975Z,14.50
2023-04-22T00:08:21.445Z,13.00
2023-04-22T00:11:02.340Z,23.50
2023-04-22T00:13:49.633Z,19.25
2023-04-22T00:16:16.689Z,19.75
2023-04-22T00:18:43.583Z,15.25
2023-04-22T00:21:10.587Z,13.00
2023-04-22T00:23:37.509Z,21.00
2023-04-22T00:26:04.487Z,22.25
2023-04-22T00:28:31.429Z,26.67
2023-04-22T00:30:59.059Z,28.00
2023-04-22T00:33:26.122Z,28.33
2023-04-22T00:35:54.872Z,28.00
2023-04-22T00:38:22.192Z,28.00
2023-04-22T00:40:49.144Z,29.00
2023-04-22T00:43:17.252Z,29.67
2023-04-22T00:45:45.085Z,28.67
2023-04-22T00:48:13.653Z,28.67
2023-04-22T00:50:40.662Z,30.33
2023-04-22T00:53:07.581Z,31.67
2023-04-22T00:55:35.106Z,30.33
2023-04-22T00:58:03.893Z,32.00
2023-04-22T01:00:31.186Z,35.00
2023-04-22T01:02:58.824Z,34.33
2023-04-22T01:05:47.152Z,35.00
2023-04-22T01:08:33.498Z,36.00
2023-04-22T01:11:31.830Z,31.33
2023-04-22T01:14:20.712Z,29.67
2023-04-22T01:17:04.694Z,26.67
2023-04-22T01:19:33.209Z,27.00
2023-04-22T01:22:02.400Z,25.00
2023-04-22T01:24:29.402Z,33.00
2023-04-22T01:26:56.381Z,34.00
2023-04-22T01:29:23.498Z,36.00
2023-04-22T01:31:51.004Z,35.00
2023-04-22T01:34:18.181Z,34.67
2023-04-22T01:36:45.245Z,32.33
2023-04-22T01:39:12.202Z,27.33
2023-04-22T01:41:39.399Z,28.00
2023-04-22T01:44:06.528Z,26.00
2023-04-22T01:46:34.078Z,18.75
2023-04-22T01:49:01.056Z,14.75
2023-04-22T01:51:28.127Z,11.00
2023-04-22T01:53:55.057Z,18.50
2023-04-22T01:56:22.096Z,14.00
2023-04-22T01:58:49.626Z,11.00
2023-04-22T02:01:16.526Z,20.00
2023-04-22T02:03:43.523Z,15.50
2023-04-22T02:06:10.483Z,13.50
2023-04-22T02:08:38.493Z,13.75
2023-04-22T02:11:05.582Z,10.50
2023-04-22T02:13:37.061Z,14.00
2023-04-22T02:16:04.483Z,11.50
2023-04-22T02:18:31.444Z,24.33
2023-04-22T02:20:58.457Z,25.00
2023-04-22T02:23:25.969Z,17.50
2023-04-22T02:25:53.412Z,14.75
2023-04-22T02:28:20.291Z,22.00
2023-04-22T02:30:47.308Z,29.00
2023-04-22T02:33:14.232Z,28.67
2023-04-22T02:35:41.151Z,32.33
2023-04-22T02:38:08.194Z,29.00
2023-04-22T02:40:35.145Z,20.67
2023-04-22T02:43:02.157Z,15.33
2023-04-22T02:45:29.147Z,25.00
2023-04-22T02:47:56.060Z,35.00
2023-04-22T02:50:23.041Z,33.00
2023-04-22T02:52:49.947Z,33.00
2023-04-22T02:55:16.829Z,25.33
2023-04-22T02:57:43.803Z,25.00
2023-04-22T03:00:11.121Z,24.00
2023-04-22T03:02:39.092Z,23.00
2023-04-22T03:05:06.537Z,23.33
2023-04-22T03:07:33.432Z,24.00
2023-04-22T03:10:00.421Z,29.00
2023-04-22T03:12:27.312Z,25.33
2023-04-22T03:14:54.206Z,21.00
2023-04-22T03:17:21.367Z,26.00
2023-04-22T03:19:48.296Z,29.00
2023-04-22T03:22:15.258Z,30.33
2023-04-22T03:24:42.169Z,26.00
2023-04-22T03:27:10.999Z,23.00
2023-04-22T03:29:38.305Z,19.33
2023-04-22T03:32:05.571Z,15.00
2023-04-22T03:34:32.516Z,25.33
2023-04-22T03:36:59.440Z,24.00
2023-04-22T03:39:26.329Z,17.25
2023-04-22T03:41:53.261Z,14.75
2023-04-22T03:44:20.176Z,6.00
2023-04-22T03:46:47.051Z,8.50
2023-04-22T03:49:14.355Z,10.00
2023-04-22T03:51:41.252Z,23.00
2023-04-22T03:54:08.127Z,25.33
2023-04-22T03:56:35.116Z,24.00
2023-04-22T03:59:02.038Z,18.67
2023-04-22T04:01:28.976Z,15.00
2023-04-22T04:03:56.069Z,22.00
2023-04-22T04:06:23.148Z,25.33
2023-04-22T04:08:50.089Z,28.00
2023-04-22T04:11:16.944Z,24.00
2023-04-22T04:13:43.824Z,18.33
2023-04-22T04:16:10.914Z,15.00
2023-04-22T04:18:38.834Z,12.75
2023-04-22T04:21:05.951Z,14.50
2023-04-22T04:23:32.861Z,11.00
2023-04-22T04:26:03.083Z,12.50
2023-04-22T04:28:33.524Z,10.50
2023-04-22T04:31:02.923Z,9.25
2023-04-22T04:33:32.728Z,9.00
2023-04-22T04:36:00.456Z,10.00
2023-04-22T04:38:27.403Z,7.00
2023-04-22T04:40:54.747Z,16.67
2023-04-22T04:43:26.184Z,16.00
2023-04-22T04:45:53.687Z,14.25
2023-04-22T04:48:21.016Z,12.00
2023-04-22T04:50:47.949Z,11.25
2023-04-22T04:53:14.905Z,12.00
2023-04-22T04:55:41.914Z,8.00
2023-04-22T04:58:08.805Z,11.25
2023-04-22T05:00:35.818Z,6.50
2023-04-22T05:03:02.877Z,7.75
2023-04-22T05:05:30.187Z,12.00
2023-04-22T05:07:57.064Z,17.00
2023-04-22T05:10:24.855Z,15.00
2023-04-22T05:12:51.803Z,22.50
2023-04-22T05:15:18.879Z,18.25
2023-04-22T05:17:45.891Z,18.00
2023-04-22T05:20:12.915Z,10.00
2023-04-22T05:22:43.361Z,13.50
2023-04-22T05:25:11.052Z,24.75
2023-04-22T05:27:37.924Z,12.25
2023-04-22T05:30:05.697Z,16.50
2023-04-22T05:32:32.737Z,23.25
2023-04-22T05:34:59.644Z,24.00
2023-04-22T05:37:26.602Z,25.25
2023-04-22T05:39:53.483Z,22.50
2023-04-22T05:42:20.547Z,22.75
2023-04-22T05:44:47.466Z,22.00
2023-04-22T05:47:14.406Z,27.00
2023-04-22T05:49:41.589Z,27.00
2023-04-22T05:52:09.027Z,25.00
2023-04-22T05:54:36.148Z,25.00
2023-04-22T05:57:03.286Z,25.00
2023-04-22T05:59:30.873Z,24.50
2023-04-22T06:01:58.088Z,22.75
2023-04-22T06:04:25.276Z,25.75
2023-04-22T06:06:55.165Z,23.00
2023-04-22T06:09:22.636Z,20.00
2023-04-22T06:11:49.594Z,23.75
2023-04-22T06:14:16.546Z,22.75
2023-04-22T06:16:43.543Z,22.50
2023-04-22T06:19:10.611Z,23.25
2023-04-22T06:21:40.196Z,20.50
2023-04-22T06:24:07.184Z,23.75
2023-04-22T06:26:34.216Z,23.00
2023-04-22T06:29:03.120Z,23.75
2023-04-22T06:31:30.186Z,24.00
2023-04-22T06:33:57.276Z,13.75
2023-04-22T06:36:24.749Z,19.50
2023-04-22T06:38:51.619Z,24.00
2023-04-22T06:41:18.645Z,22.00
2023-04-22T06:43:45.670Z,20.75
2023-04-22T06:46:12.670Z,22.00
2023-04-22T06:48:39.580Z,21.50
2023-04-22T06:51:06.536Z,21.25
2023-04-22T06:53:33.469Z,22.50
2023-04-22T06:56:00.445Z,19.50
2023-04-22T06:58:27.332Z,23.50
2023-04-22T07:00:54.242Z,22.75
2023-04-22T07:03:21.208Z,20.50
2023-04-22T07:05:48.916Z,19.75
2023-04-22T07:08:16.391Z,14.67
2023-04-22T07:10:43.523Z,18.00
2023-04-22T07:13:10.407Z,17.50
2023-04-22T07:15:37.368Z,19.50
2023-04-22T07:18:04.466Z,15.00
2023-04-22T07:20:31.594Z,11.33
2023-04-22T07:22:58.536Z,9.67
2023-04-22T07:25:25.536Z,13.00
2023-04-22T07:27:52.487Z,15.00
2023-04-22T07:30:19.371Z,15.00
2023-04-22T07:32:48.335Z,11.00
2023-04-22T07:35:15.990Z,9.00
2023-04-22T07:37:42.937Z,10.67
2023-04-22T07:40:12.370Z,6.00
2023-04-22T07:42:40.614Z,7.00
2023-04-22T07:45:08.002Z,7.67
2023-04-22T07:47:35.103Z,7.00
2023-04-22T07:50:02.182Z,6.00
2023-04-22T07:52:30.201Z,4.67
2023-04-22T07:54:57.444Z,4.00
2023-04-22T07:57:24.333Z,4.00
2023-04-22T07:59:52.501Z,4.00
2023-04-22T08:02:19.595Z,9.00
2023-04-22T08:04:46.738Z,6.33
2023-04-22T08:07:30.850Z,5.00
2023-04-22T08:10:00.046Z,4.00
2023-04-22T08:12:27.188Z,6.67
2023-04-22T08:14:54.433Z,10.67
2023-04-22T08:17:22.358Z,12.00
2023-04-22T08:19:49.823Z,12.25
2023-04-22T08:22:18.765Z,12.75
2023-04-22T08:24:45.891Z,10.33
2023-04-22T08:27:12.974Z,10.00
2023-04-22T08:29:40.133Z,7.67
2023-04-22T08:32:07.391Z,5.00
2023-04-22T08:34:34.278Z,6.67
2023-04-22T08:37:01.232Z,8.00
2023-04-22T08:39:28.273Z,4.00
2023-04-22T08:41:59.018Z,6.00
2023-04-22T08:44:26.561Z,5.00
2023-04-22T08:46:54.880Z,4.00
2023-04-22T08:49:24.798Z,5.00
2023-04-22T08:51:53.219Z,4.00
2023-04-22T08:54:20.248Z,4.00
2023-04-22T08:56:50.926Z,3.00
2023-04-22T08:59:20.696Z,6.67
2023-04-22T09:01:52.306Z,4.00
2023-04-22T09:04:20.117Z,6.00
2023-04-22T09:06:47.130Z,5.00
2023-04-22T09:09:14.679Z,10.00
2023-04-22T09:11:42.261Z,8.00
2023-04-22T09:14:09.211Z,4.00
2023-04-22T09:16:44.764Z,6.00
2023-04-22T09:19:13.380Z,8.33
2023-04-22T09:21:41.655Z,7.00
2023-04-22T09:24:11.116Z,8.00
2023-04-22T09:26:42.704Z,10.67
2023-04-22T09:29:17.272Z,11.00
2023-04-22T09:31:53.552Z,11.00
2023-04-22T09:34:22.450Z,11.00
2023-04-22T09:36:52.320Z,10.00
2023-04-22T09:39:19.236Z,7.33
2023-04-22T09:41:54.369Z,7.33
2023-04-22T09:44:21.288Z,6.00
2023-04-22T09:46:50.327Z,6.33
2023-04-22T09:49:18.220Z,6.00
2023-04-22T09:51:45.096Z,5.00
2023-04-22T09:54:12.459Z,4.33
2023-04-22T09:56:49.637Z,4.00
2023-04-22T09:59:21.314Z,3.33
2023-04-22T10:01:49.408Z,3.33
2023-04-22T10:04:21.511Z,7.33
2023-04-22T10:06:49.105Z,5.67
2023-04-22T10:09:20.623Z,6.67
2023-04-22T10:11:49.248Z,8.67
2023-04-22T10:14:16.359Z,9.00
2023-04-22T10:16:47.972Z,8.67
2023-04-22T10:19:22.397Z,6.67
2023-04-22T10:21:54.093Z,8.00
2023-04-22T10:24:21.633Z,8.00
2023-04-22T10:26:51.967Z,6.00
2023-04-22T10:29:20.804Z,5.33
2023-04-22T10:32:25.256Z,9.00
2023-04-22T10:35:09.227Z,4.33
2023-04-22T10:37:36.367Z,4.00
2023-04-22T10:40:16.215Z,4.00
2023-04-22T10:42:49.927Z,5.67
2023-04-22T10:45:17.088Z,4.33
2023-04-22T10:47:44.779Z,4.00
2023-04-22T10:50:21.890Z,3.33
2023-04-22T10:52:56.630Z,6.33
2023-04-22T10:55:24.019Z,4.33
2023-04-22T10:57:52.541Z,5.67
2023-04-22T11:00:21.079Z,3.00
2023-04-22T11:02:53.432Z,6.00
2023-04-22T11:05:25.369Z,5.33
2023-04-22T11:08:02.107Z,4.00
2023-04-22T11:10:44.144Z,4.00
2023-04-22T11:13:16.721Z,4.00
2023-04-22T11:15:46.816Z,4.00
2023-04-22T11:18:22.567Z,4.00
2023-04-22T11:20:51.011Z,4.00
2023-04-22T11:23:20.535Z,4.00
2023-04-22T11:25:47.823Z,3.00
2023-04-22T11:28:14.785Z,2.33
2023-04-22T11:30:41.813Z,2.00
2023-04-22T11:33:09.141Z,2.00
2023-04-22T11:35:51.393Z,4.00
2023-04-22T11:38:18.416Z,7.00
2023-04-22T11:40:49.011Z,7.00
2023-04-22T11:43:16.350Z,8.67
2023-04-22T11:45:43.404Z,6.33
2023-04-22T11:48:12.080Z,6.00
2023-04-22T11:50:40.957Z,8.00
2023-04-22T11:53:26.110Z,7.00
2023-04-22T11:55:53.113Z,5.00
2023-04-22T11:58:29.106Z,7.00
2023-04-22T12:00:58.681Z,4.33
2023-04-22T12:03:30.216Z,5.00
2023-04-22T12:06:05.666Z,3.67
2023-04-22T12:08:44.491Z,5.00
2023-04-22T12:11:12.680Z,4.33
2023-04-22T12:13:42.973Z,4.00
2023-04-22T12:16:14.926Z,3.00
2023-04-22T12:18:49.411Z,3.00
2023-04-22T12:21:19.256Z,3.00
2023-04-22T12:23:59.116Z,4.00
2023-04-22T12:26:27.737Z,3.00
2023-04-22T12:28:57.917Z,2.00
2023-04-22T12:31:25.521Z,4.00
2023-04-22T12:33:53.925Z,2.33
2023-04-22T12:36:21.775Z,3.00
2023-04-22T12:38:48.833Z,3.00
2023-04-22T12:41:16.745Z,6.00
2023-04-22T12:43:43.719Z,6.67
2023-04-22T12:46:11.030Z,5.00
2023-04-22T12:48:38.129Z,6.33
2023-04-22T12:51:06.143Z,7.00
2023-04-22T12:53:33.244Z,5.00
2023-04-22T12:56:00.224Z,4.67
2023-04-22T12:58:27.375Z,6.00
2023-04-22T13:01:01.349Z,3.00
2023-04-22T13:03:29.505Z,4.33
2023-04-22T13:05:59.086Z,7.67
2023-04-22T13:08:30.227Z,6.00
2023-04-22T13:11:01.528Z,6.00
2023-04-22T13:13:29.959Z,2.33
2023-04-22T13:15:58.229Z,3.33
2023-04-22T13:18:26.401Z,3.00
2023-04-22T13:20:58.410Z,2.67
2023-04-22T13:23:29.575Z,3.00
2023-04-22T13:26:00.164Z,2.00
2023-04-22T13:28:29.833Z,1.00
2023-04-22T13:30:58.773Z,2.00
2023-04-22T13:33:28.580Z,4.00
2023-04-22T13:35:56.719Z,6.00
2023-04-22T13:38:24.704Z,3.33
2023-04-22T13:40:51.685Z,7.00
2023-04-22T13:43:18.654Z,5.00
2023-04-22T13:45:45.783Z,6.33
2023-04-22T13:48:12.721Z,5.67
2023-04-22T13:50:42.930Z,5.67
2023-04-22T13:53:11.988Z,4.00
2023-04-22T13:55:39.855Z,6.00
2023-04-22T13:58:07.915Z,6.00
2023-04-22T14:00:35.437Z,7.33
2023-04-22T14:03:02.871Z,6.33
2023-04-22T14:05:29.930Z,6.00
2023-04-22T14:07:57.021Z,7.00
2023-04-22T14:10:24.781Z,6.00
2023-04-22T14:12:53.113Z,3.67
2023-04-22T14:15:20.008Z,3.00
2023-04-22T14:17:49.717Z,2.00
2023-04-22T14:20:16.987Z,3.00
2023-04-22T14:22:43.865Z,2.67
2023-04-22T14:25:11.030Z,4.00
2023-04-22T14:27:38.185Z,4.00
2023-04-22T14:30:06.743Z,5.00
2023-04-22T14:32:33.775Z,4.33
2023-04-22T14:35:00.728Z,4.33
2023-04-22T14:37:27.772Z,6.00
2023-04-22T14:39:54.702Z,4.67
2023-04-22T14:42:22.009Z,3.33
2023-04-22T14:44:48.900Z,6.00
2023-04-22T14:47:15.864Z,7.00
2023-04-22T14:49:42.798Z,7.00
2023-04-22T14:52:09.783Z,4.67
2023-04-22T14:54:36.707Z,4.33
2023-04-22T14:57:04.384Z,1.67
2023-04-22T14:59:31.391Z,4.67
2023-04-22T15:01:58.454Z,3.33
2023-04-22T15:04:25.547Z,2.33
2023-04-22T15:06:57.643Z,3.00
2023-04-22T15:09:24.842Z,2.33
2023-04-22T15:11:54.337Z,2.33
2023-04-22T15:14:21.264Z,1.00
2023-04-22T15:16:48.168Z,2.00
2023-04-22T15:19:15.157Z,2.00
2023-04-22T15:21:42.002Z,2.00
2023-04-22T15:24:08.894Z,0.00
2023-04-22T15:26:35.856Z,2.00
2023-04-22T15:29:03.677Z,4.00
2023-04-22T15:31:30.592Z,2.00
2023-04-22T15:33:57.515Z,1.67
2023-04-22T15:36:24.366Z,15.00
2023-04-22T15:38:58.094Z,9.00
2023-04-22T15:41:26.257Z,6.00
2023-04-22T15:43:53.356Z,4.00
2023-04-22T15:46:21.232Z,3.00
2023-04-22T15:48:49.083Z,2.00
2023-04-22T15:51:17.216Z,1.00
2023-04-22T15:53:47.793Z,0.00
2023-04-22T15:56:15.748Z,1.00
2023-04-22T15:58:42.647Z,2.00
2023-04-22T16:01:18.877Z,0.00
2023-04-22T16:03:50.284Z,1.00
2023-04-22T16:06:20.299Z,1.00
2023-04-22T16:08:47.303Z,0.00
2023-04-22T16:11:15.795Z,0.00
2023-04-22T16:13:43.276Z,0.00
2023-04-22T16:16:11.401Z,0.00
2023-04-22T16:18:38.585Z,0.00
2023-04-22T16:21:05.662Z,0.67
2023-04-22T16:23:33.700Z,1.00
2023-04-22T16:26:02.940Z,0.00
2023-04-22T16:28:29.912Z,0.00
2023-04-22T16:30:56.964Z,0.00
2023-04-22T16:33:25.153Z,0.00
2023-04-22T16:35:52.162Z,0.00
2023-04-22T16:38:19.090Z,0.00
2023-04-22T16:40:46.041Z,0.00
2023-04-22T16:43:13.153Z,0.67
2023-04-22T16:45:40.185Z,0.00
2023-04-22T16:48:07.145Z,0.67
2023-04-22T16:50:34.210Z,0.67
2023-04-22T16:53:01.097Z,2.00
2023-04-22T16:55:27.999Z,2.00
2023-04-22T16:57:54.945Z,3.00
2023-04-22T17:00:24.249Z,3.67
2023-04-22T17:02:51.306Z,5.33
2023-04-22T17:05:18.484Z,4.67
2023-04-22T17:07:45.403Z,11.33
2023-04-22T17:10:12.311Z,9.00
2023-04-22T17:12:39.525Z,8.00
2023-04-22T17:15:07.088Z,10.00
2023-04-22T17:17:33.979Z,10.00
2023-04-22T17:20:01.036Z,8.00
2023-04-22T17:22:28.077Z,9.00
2023-04-22T17:24:56.872Z,11.00
2023-04-22T17:27:23.779Z,9.00
2023-04-22T17:29:50.813Z,10.50
2023-04-22T17:32:17.805Z,12.25
2023-04-22T17:34:44.718Z,10.75
2023-04-22T17:37:11.627Z,10.00
2023-04-22T17:39:40.106Z,10.25
2023-04-22T17:42:07.171Z,8.75
2023-04-22T17:44:34.095Z,7.75
2023-04-22T17:47:01.096Z,9.50
2023-04-22T17:49:28.098Z,8.00
2023-04-22T17:51:55.112Z,9.00
2023-04-22T17:54:22.048Z,10.50
2023-04-22T17:56:48.975Z,10.00
2023-04-22T17:59:15.948Z,8.25
2023-04-22T18:01:43.408Z,8.00
2023-04-22T18:04:10.566Z,10.25
2023-04-22T18:06:37.616Z,14.75
2023-04-22T18:09:04.612Z,15.50
2023-04-22T18:11:32.233Z,13.25
2023-04-22T18:14:00.285Z,11.00
2023-04-22T18:16:29.298Z,10.00
2023-04-22T18:19:00.466Z,11.00
2023-04-22T18:21:30.432Z,22.25
2023-04-22T18:23:57.589Z,21.00
2023-04-22T18:26:26.764Z,21.00
2023-04-22T18:28:55.239Z,19.25
2023-04-22T18:31:24.511Z,20.00
2023-04-22T18:33:53.131Z,18.00
2023-04-22T18:36:22.831Z,19.50
2023-04-22T18:38:51.650Z,18.50
2023-04-22T18:41:21.060Z,16.75
2023-04-22T18:43:50.732Z,14.00
2023-04-22T18:46:18.436Z,14.75
2023-04-22T18:49:19.594Z,16.00
2023-04-22T18:51:50.263Z,17.00
2023-04-22T18:54:19.555Z,15.75
2023-04-22T18:56:48.450Z,16.00
2023-04-22T18:59:17.462Z,18.50
2023-04-22T19:01:46.410Z,19.25
2023-04-22T19:04:15.653Z,18.50
2023-04-22T19:06:44.974Z,19.00
2023-04-22T19:09:13.449Z,16.00
2023-04-22T19:11:42.821Z,14.50
2023-04-22T19:14:12.044Z,19.75
2023-04-22T19:16:41.249Z,18.25
2023-04-22T19:19:10.274Z,14.50
2023-04-22T19:21:40.622Z,13.00
2023-04-22T19:24:10.826Z,9.25
2023-04-22T19:27:13.894Z,8.00
2023-04-22T19:29:43.946Z,9.00
2023-04-22T19:32:13.820Z,9.75
2023-04-22T19:34:44.610Z,8.50
2023-04-22T19:37:13.917Z,7.00
2023-04-22T19:39:43.198Z,7.00
2023-04-22T19:42:13.134Z,4.00
2023-04-22T19:44:44.214Z,5.00
2023-04-22T19:47:13.845Z,8.00
2023-04-22T19:49:41.683Z,9.75
2023-04-22T19:52:11.315Z,7.75
2023-04-22T19:54:41.164Z,6.00
2023-04-22T19:57:08.407Z,5.75
2023-04-22T19:59:35.740Z,9.00
2023-04-22T20:02:02.848Z,6.00
2023-04-22T20:04:30.349Z,4.00
2023-04-22T20:06:59.022Z,7.00
2023-04-22T20:09:27.704Z,5.50
2023-04-22T20:11:55.293Z,5.75
2023-04-22T20:14:22.878Z,4.00
2023-04-22T20:16:50.158Z,3.00
2023-04-22T20:19:17.343Z,5.00
2023-04-22T20:21:48.156Z,4.00
2023-04-22T20:24:20.063Z,4.50
2023-04-22T20:26:50.320Z,3.25
2023-04-22T20:29:21.343Z,3.50
2023-04-22T20:31:48.551Z,3.75
2023-04-22T20:34:15.798Z,2.00
2023-04-22T20:36:43.096Z,3.00
2023-04-22T20:39:14.465Z,2.00
2023-04-22T20:41:41.806Z,3.00
2023-04-22T20:44:10.416Z,14.75
2023-04-22T20:46:38.093Z,12.75
2023-04-22T20:49:07.010Z,14.00
2023-04-22T20:51:34.169Z,16.75
2023-04-22T20:54:01.096Z,15.00
2023-04-22T20:56:29.734Z,13.75
2023-04-22T20:58:58.400Z,13.50
2023-04-22T21:01:27.663Z,10.50
2023-04-22T21:03:57.804Z,14.00
2023-04-22T21:06:28.367Z,11.00
2023-04-22T21:08:56.206Z,9.00
2023-04-22T21:11:23.720Z,6.00
2023-04-22T21:13:52.232Z,4.00
2023-04-22T21:16:19.954Z,5.25
2023-04-22T21:18:48.895Z,7.75
2023-04-22T21:21:23.764Z,8.00
2023-04-22T21:23:52.646Z,7.75
2023-04-22T21:26:19.732Z,6.75
2023-04-22T21:28:46.978Z,5.25
2023-04-22T21:31:14.261Z,4.50
2023-04-22T21:33:41.213Z,4.25
2023-04-22T21:36:08.193Z,3.00
2023-04-22T21:38:35.118Z,6.25
2023-04-22T21:41:02.194Z,4.50
2023-04-22T21:43:29.836Z,6.00
2023-04-22T21:45:56.804Z,6.00
2023-04-22T21:48:23.646Z,5.00
2023-04-22T21:50:50.556Z,5.25
2023-04-22T21:53:19.624Z,5.25
2023-04-22T21:55:46.594Z,5.25
2023-04-22T21:58:13.863Z,4.00
2023-04-22T22:00:40.651Z,4.25
2023-04-22T22:03:07.608Z,8.00
2023-04-22T22:05:34.808Z,6.00
2023-04-22T22:08:02.067Z,6.50
2023-04-22T22:10:28.891Z,5.00
2023-04-22T22:12:55.736Z,4.25
2023-04-22T22:15:22.561Z,6.50
2023-04-22T22:17:50.889Z,8.25
2023-04-22T22:20:20.655Z,12.50
2023-04-22T22:22:48.082Z,16.50
2023-04-22T22:25:16.352Z,17.00
2023-04-22T22:27:47.006Z,10.50
2023-04-22T22:30:14.736Z,13.25
2023-04-22T22:32:41.844Z,14.50
2023-04-22T22:35:09.099Z,12.00
2023-04-22T22:37:36.586Z,8.75
2023-04-22T22:40:04.149Z,10.75
2023-04-22T22:42:31.237Z,10.50
2023-04-22T22:44:58.169Z,10.00
2023-04-22T22:47:25.917Z,10.00
2023-04-22T22:49:53.686Z,7.75
2023-04-22T22:52:20.751Z,6.00
2023-04-22T22:54:48.854Z,18.50
2023-04-22T22:57:15.925Z,18.00
2023-04-22T22:59:42.842Z,22.50
2023-04-22T23:02:10.089Z,22.25
2023-04-22T23:04:37.723Z,21.00
2023-04-22T23:07:04.726Z,21.50
2023-04-22T23:09:31.917Z,13.50
2023-04-22T23:11:58.837Z,17.75
2023-04-22T23:14:28.739Z,15.00
2023-04-22T23:16:55.699Z,16.00
2023-04-22T23:19:23.645Z,10.00
2023-04-22T23:21:50.856Z,12.50
2023-04-22T23:24:18.031Z,14.00
2023-04-22T23:26:45.161Z,13.50
2023-04-22T23:29:12.508Z,11.00
2023-04-22T23:31:40.923Z,19.75
2023-04-22T23:34:08.306Z,22.00
2023-04-22T23:36:37.579Z,19.25
2023-04-22T23:39:06.022Z,21.00
2023-04-22T23:41:33.612Z,19.75
2023-04-22T23:44:00.577Z,21.00
2023-04-22T23:46:27.778Z,20.00
2023-04-22T23:48:55.099Z,24.50
2023-04-22T23:51:22.127Z,23.25
2023-04-22T23:53:49.059Z,23.00
2023-04-22T23:56:20.352Z,22.00
2023-04-22T23:58:48.805Z,14.00
